Time;durP1;ratioP1;P1;durP2;ratioP2;P2;SDS_P1;SDS_P2;PMS_P1;PMS_P2;Temp;Humidity;BMP_temperature;BMP_pressure;BME280_temperature;BME280_humidity;BME280_pressure;Samples;Min_cycle;Max_cycle;Signal;HPM_P1;HPM_P2
2023/10/03 03:00:46;;;;;;;18.80;12.25;;;22.40;51.10;;;;;;5765019;23;46520;-83
2023/10/03 03:03:14;;;;;;;19.08;11.45;;;22.40;51.10;;;;;;4835263;29;45577;-82
2023/10/03 03:05:41;;;;;;;18.73;12.10;;;22.40;51.10;;;;;;4849701;29;46570;-79
2023/10/03 03:08:22;;;;;;;20.88;12.60;;;22.40;51.10;;;;;;4849153;29;45301;-78
2023/10/03 03:10:58;;;;;;;20.13;11.93;;;22.40;51.10;;;;;;4852823;29;45091;-81
2023/10/03 03:13:26;;;;;;;20.95;12.48;;;22.40;51.10;;;;;;4848810;29;45373;-79
2023/10/03 03:15:53;;;;;;;20.33;12.43;;;22.40;51.10;;;;;;4850119;29;46418;-79
2023/10/03 03:18:24;;;;;;;20.70;12.02;;;22.40;51.10;;;;;;4847532;29;45289;-80
2023/10/03 03:20:57;;;;;;;19.15;12.50;;;22.40;51.10;;;;;;4842647;29;45216;-81
2023/10/03 03:23:24;;;;;;;20.73;12.10;;;22.40;51.10;;;;;;4853794;29;45669;-80
2023/10/03 03:25:57;;;;;;;18.17;11.85;;;22.40;51.10;;;;;;4846661;29;46736;-78
2023/10/03 03:28:27;;;;;;;19.73;11.70;;;22.40;51.10;;;;;;4863480;29;45325;-81
2023/10/03 03:30:56;;;;;;;20.80;12.55;;;22.40;51.10;;;;;;4855896;29;44730;-81
2023/10/03 03:33:27;;;;;;;19.77;12.30;;;22.40;51.10;;;;;;4842195;29;45503;-80
2023/10/03 03:35:55;;;;;;;18.48;11.73;;;22.40;51.10;;;;;;4839843;29;45615;-83
2023/10/03 03:38:22;;;;;;;19.43;12.23;;;22.40;51.10;;;;;;4848164;29;44998;-83
2023/10/03 03:40:53;;;;;;;19.77;11.87;;;22.40;51.10;;;;;;4840725;29;45956;-81
2023/10/03 03:43:21;;;;;;;19.53;12.27;;;22.40;51.10;;;;;;4845879;29;45164;-80
2023/10/03 03:45:48;;;;;;;19.27;11.88;;;22.40;51.00;;;;;;4853742;29;47245;-83
2023/10/03 03:48:13;;;;;;;19.83;12.18;;;22.40;51.00;;;;;;4860136;29;44968;-83
2023/10/03 03:50:40;;;;;;;18.70;12.00;;;22.40;51.00;;;;;;4840568;29;45594;-81
2023/10/03 03:53:10;;;;;;;19.42;12.60;;;22.40;51.00;;;;;;4843350;29;45540;-84
2023/10/03 03:55:37;;;;;;;20.08;12.65;;;22.40;51.00;;;;;;4844848;29;46104;-79
2023/10/03 03:58:11;;;;;;;20.58;12.75;;;22.30;51.00;;;;;;4840526;29;45103;-80
2023/10/03 04:00:39;;;;;;;19.25;12.00;;;22.40;51.10;;;;;;4846070;29;45287;-80
2023/10/03 04:03:08;;;;;;;19.98;12.32;;;22.40;51.00;;;;;;4854289;29;45505;-81
2023/10/03 04:05:35;;;;;;;19.60;12.23;;;22.40;51.00;;;;;;4851487;29;45050;-82
2023/10/03 04:08:03;;;;;;;19.40;12.45;;;22.40;51.00;;;;;;4865671;29;45384;-81
2023/10/03 04:10:30;;;;;;;20.52;12.63;;;22.40;51.00;;;;;;4865870;29;45121;-79
2023/10/03 04:12:59;;;;;;;20.15;12.30;;;22.30;51.00;;;;;;4846227;29;44725;-84
2023/10/03 04:15:25;;;;;;;20.90;13.07;;;22.40;51.00;;;;;;4852261;29;46269;-81
2023/10/03 04:17:51;;;;;;;19.67;12.73;;;22.40;51.00;;;;;;4828511;29;44845;-80
2023/10/03 04:20:23;;;;;;;21.03;12.53;;;22.40;51.00;;;;;;4839448;29;45689;-79
2023/10/03 04:22:52;;;;;;;21.15;12.73;;;22.40;51.00;;;;;;4853850;29;45143;-83
2023/10/03 04:25:22;;;;;;;21.35;12.93;;;22.40;51.00;;;;;;4841868;29;45210;-85
2023/10/03 04:27:48;;;;;;;20.23;12.80;;;22.40;51.00;;;;;;4849325;29;45261;-81
2023/10/03 04:30:14;;;;;;;21.05;13.00;;;22.30;50.90;;;;;;4826898;29;45545;-80
2023/10/03 04:32:41;;;;;;;20.63;12.70;;;22.40;51.00;;;;;;4851806;29;45400;-82
2023/10/03 04:35:13;;;;;;;21.52;12.80;;;22.40;51.00;;;;;;4846669;29;45349;-91
2023/10/03 04:37:42;;;;;;;19.60;12.07;;;22.30;51.50;;;;;;4860449;29;44705;-79
2023/10/03 04:40:10;;;;;;;18.67;12.37;;;22.30;50.90;;;;;;4845092;29;45173;-89
2023/10/03 04:42:38;;;;;;;18.37;12.13;;;22.30;50.90;;;;;;4845222;29;45091;-81
2023/10/03 04:45:11;;;;;;;20.42;12.32;;;22.30;50.90;;;;;;4869474;29;48258;-89
2023/10/03 04:47:37;;;;;;;19.90;12.63;;;22.40;51.00;;;;;;4836940;29;44850;-79
2023/10/03 04:50:06;;;;;;;20.13;12.75;;;22.30;50.90;;;;;;4848152;29;44885;-90
2023/10/03 04:52:32;;;;;;;20.15;12.32;;;22.30;51.00;;;;;;4836919;29;45087;-80
2023/10/03 04:54:58;;;;;;;22.10;12.60;;;22.30;50.90;;;;;;4862888;29;46126;-81
2023/10/03 04:57:26;;;;;;;20.23;12.63;;;22.30;50.90;;;;;;4846356;29;45573;-79
2023/10/03 04:59:56;;;;;;;18.40;11.95;;;22.30;50.90;;;;;;4855493;29;45176;-82
2023/10/03 05:02:23;;;;;;;20.55;12.68;;;22.30;50.90;;;;;;4840673;29;46052;-83
2023/10/03 05:04:48;;;;;;;21.73;12.73;;;22.30;50.90;;;;;;4832934;29;45371;-80
2023/10/03 05:07:15;;;;;;;20.67;12.95;;;22.30;50.90;;;;;;4818266;29;45313;-79
2023/10/03 05:09:41;;;;;;;21.33;13.00;;;22.30;50.90;;;;;;4864292;29;45690;-82
2023/10/03 05:12:07;;;;;;;21.35;12.98;;;22.30;50.90;;;;;;4841026;29;45027;-79
2023/10/03 05:14:35;;;;;;;20.83;12.87;;;22.30;50.90;;;;;;4842487;29;46399;-81
2023/10/03 05:17:01;;;;;;;22.27;13.43;;;22.30;50.90;;;;;;4822967;29;45496;-82
2023/10/03 05:19:27;;;;;;;21.15;13.23;;;22.30;50.90;;;;;;4817522;29;45239;-79
2023/10/03 05:21:56;;;;;;;19.90;12.45;;;22.30;50.90;;;;;;4839978;29;45547;-80
2023/10/03 05:24:23;;;;;;;22.17;13.13;;;22.30;50.90;;;;;;4831684;29;46203;-80
2023/10/03 05:26:51;;;;;;;22.17;13.23;;;22.30;50.90;;;;;;4851852;29;45335;-81
2023/10/03 05:29:18;;;;;;;21.17;13.30;;;22.30;50.90;;;;;;4837907;29;44929;-82
2023/10/03 05:31:44;;;;;;;21.33;12.80;;;22.30;50.90;;;;;;4828200;29;45460;-81
2023/10/03 05:34:12;;;;;;;20.85;13.18;;;22.40;50.90;;;;;;4822808;29;44994;-84
2023/10/03 05:36:38;;;;;;;21.55;13.23;;;22.30;50.90;;;;;;4836983;29;45109;-80
2023/10/03 05:39:11;;;;;;;20.90;12.60;;;22.30;51.50;;;;;;4844222;29;45280;-81
2023/10/03 05:41:41;;;;;;;21.92;13.07;;;22.30;50.90;;;;;;4830119;29;45344;-82
2023/10/03 05:44:11;;;;;;;22.02;13.77;;;22.30;50.90;;;;;;4832832;29;45228;-78
2023/10/03 05:46:38;;;;;;;21.10;12.57;;;22.30;51.50;;;;;;4833315;29;45577;-82
2023/10/03 05:49:04;;;;;;;22.37;13.60;;;22.30;50.90;;;;;;4828597;29;45185;-80
2023/10/03 05:51:30;;;;;;;20.27;12.73;;;22.30;50.90;;;;;;4841583;29;45923;-79
2023/10/03 05:53:56;;;;;;;20.40;12.73;;;22.30;50.90;;;;;;4837824;29;45358;-80
2023/10/03 05:56:23;;;;;;;21.77;12.75;;;22.30;50.90;;;;;;4839505;29;44859;-79
2023/10/03 05:58:48;;;;;;;22.97;13.53;;;22.30;50.90;;;;;;4833000;29;45338;-79
2023/10/03 06:01:15;;;;;;;22.50;13.57;;;22.30;50.90;;;;;;4824607;29;44964;-86
2023/10/03 06:03:41;;;;;;;21.60;13.35;;;22.30;50.90;;;;;;4855087;29;44964;-79
2023/10/03 06:06:07;;;;;;;22.07;13.27;;;22.30;50.90;;;;;;4845547;29;45244;-83
2023/10/03 06:08:33;;;;;;;22.25;14.05;;;22.30;50.90;;;;;;4848203;29;45337;-82
2023/10/03 06:11:00;;;;;;;22.33;13.13;;;22.30;50.90;;;;;;4831603;29;45601;-80
2023/10/03 06:13:26;;;;;;;21.77;13.30;;;22.30;50.90;;;;;;4849994;29;46140;-80
2023/10/03 06:15:52;;;;;;;22.10;13.30;;;22.30;50.90;;;;;;4842321;29;45147;-81
2023/10/03 06:18:19;;;;;;;21.75;13.43;;;22.30;50.90;;;;;;4861276;29;45291;-80
2023/10/03 06:20:45;;;;;;;21.60;13.10;;;22.30;50.90;;;;;;4842820;29;45371;-81
2023/10/03 06:23:11;;;;;;;21.92;13.55;;;22.30;50.90;;;;;;4857763;29;45180;-80
2023/10/03 06:25:37;;;;;;;23.02;13.40;;;22.30;50.90;;;;;;4860093;29;45080;-81
2023/10/03 06:28:04;;;;;;;22.27;13.85;;;22.30;50.90;;;;;;4828257;29;45614;-83
2023/10/03 06:30:30;;;;;;;21.98;13.77;;;22.30;50.90;;;;;;4844001;29;45440;-85
2023/10/03 06:32:55;;;;;;;20.48;13.23;;;22.30;50.90;;;;;;4834077;29;46100;-82
2023/10/03 06:35:21;;;;;;;21.70;13.30;;;22.30;50.90;;;;;;4867865;29;45147;-81
2023/10/03 06:37:48;;;;;;;22.38;13.93;;;22.30;50.90;;;;;;4863351;29;45451;-84
2023/10/03 06:40:16;;;;;;;23.05;14.57;;;22.30;50.90;;;;;;4829318;29;45580;-80
2023/10/03 06:42:41;;;;;;;22.02;13.90;;;22.30;50.90;;;;;;4855580;29;47483;-85
2023/10/03 06:45:13;;;;;;;21.70;13.82;;;22.30;50.90;;;;;;4847260;29;45146;-86
2023/10/03 06:47:39;;;;;;;24.40;14.70;;;22.30;50.90;;;;;;4839568;29;45121;-80
2023/10/03 06:50:14;;;;;;;22.43;13.97;;;22.30;50.90;;;;;;4843045;29;45396;-82
2023/10/03 06:52:40;;;;;;;21.27;13.40;;;22.30;50.90;;;;;;4862251;29;46031;-79
2023/10/03 06:55:11;;;;;;;22.43;13.70;;;22.30;51.50;;;;;;4855678;29;46757;-91
2023/10/03 06:57:40;;;;;;;22.95;14.38;;;22.30;50.90;;;;;;4830231;29;45783;-83
2023/10/03 07:00:14;;;;;;;22.33;13.40;;;22.30;50.90;;;;;;4863782;29;45191;-79
2023/10/03 07:02:40;;;;;;;22.27;14.02;;;22.30;50.90;;;;;;4850975;29;45653;-80
2023/10/03 07:05:07;;;;;;;22.73;14.30;;;22.30;50.90;;;;;;4837436;29;45180;-82
2023/10/03 07:07:33;;;;;;;24.02;14.30;;;22.30;50.90;;;;;;4839358;29;45192;-79
2023/10/03 07:09:59;;;;;;;22.00;13.25;;;22.30;50.90;;;;;;4859851;29;45600;-85
2023/10/03 07:12:25;;;;;;;23.70;14.10;;;22.30;50.90;;;;;;4857780;29;45606;-83
2023/10/03 07:14:50;;;;;;;21.73;13.43;;;22.30;50.90;;;;;;4856275;29;45910;-84
2023/10/03 07:17:16;;;;;;;23.43;14.00;;;22.30;50.90;;;;;;4845611;29;45673;-80
2023/10/03 07:19:45;;;;;;;22.77;14.13;;;22.30;50.90;;;;;;4864827;29;45913;-79
2023/10/03 07:22:11;;;;;;;21.92;13.85;;;22.30;50.90;;;;;;4844173;29;46523;-81
2023/10/03 07:24:39;;;;;;;24.93;15.07;;;22.30;51.00;;;;;;4864669;29;45153;-83
2023/10/03 07:27:07;;;;;;;23.00;14.50;;;22.30;51.50;;;;;;4873847;29;45542;-82
2023/10/03 07:29:33;;;;;;;23.77;14.50;;;22.30;50.90;;;;;;4858867;29;44720;-79
2023/10/03 07:31:59;;;;;;;22.57;13.70;;;22.30;50.90;;;;;;4853855;29;46518;-79
2023/10/03 07:34:25;;;;;;;23.25;14.25;;;22.30;50.90;;;;;;4877820;29;45202;-79
2023/10/03 07:36:51;;;;;;;23.83;14.10;;;22.30;50.90;;;;;;4852000;29;46041;-79
2023/10/03 07:39:17;;;;;;;23.80;14.27;;;22.30;51.00;;;;;;4856996;29;45114;-85
2023/10/03 07:41:43;;;;;;;24.90;14.55;;;22.30;50.90;;;;;;4875372;29;46170;-81
2023/10/03 07:44:10;;;;;;;24.88;15.05;;;22.30;50.90;;;;;;4860830;29;45275;-79
2023/10/03 07:46:36;;;;;;;24.63;14.30;;;22.30;51.00;;;;;;4868677;29;45339;-80
2023/10/03 07:49:02;;;;;;;24.77;14.47;;;22.30;50.90;;;;;;4890040;28;46035;-80
2023/10/03 07:51:29;;;;;;;22.90;14.10;;;22.30;50.90;;;;;;4851048;29;45412;-81
2023/10/03 07:53:55;;;;;;;22.02;13.93;;;22.30;50.90;;;;;;4844536;29;45335;-81
2023/10/03 07:56:42;;;;;;;25.03;14.97;;;22.30;50.90;;;;;;4874763;29;44729;-80
2023/10/03 07:59:08;;;;;;;24.35;15.20;;;22.20;50.90;;;;;;4838755;29;45324;-82
2023/10/03 08:01:38;;;;;;;23.90;14.55;;;22.30;51.00;;;;;;4854276;29;46411;-81
2023/10/03 08:04:08;;;;;;;23.90;14.70;;;22.30;51.00;;;;;;4849645;29;45258;-80
2023/10/03 08:06:33;;;;;;;23.88;14.63;;;22.30;50.90;;;;;;4830249;29;45845;-87
2023/10/03 08:09:24;;;;;;;24.85;14.38;;;22.30;51.00;;;;;;4866271;29;45373;-80
2023/10/03 08:11:52;;;;;;;22.30;14.20;;;22.20;50.90;;;;;;4874785;29;46841;-83
2023/10/03 08:14:17;;;;;;;23.38;14.70;;;22.30;51.00;;;;;;4863366;29;45300;-81
2023/10/03 08:16:44;;;;;;;23.85;14.40;;;22.30;51.00;;;;;;4856445;29;44730;-82
2023/10/03 08:19:21;;;;;;;22.83;14.07;;;22.30;51.00;;;;;;4850135;29;45877;-80
2023/10/03 08:21:48;;;;;;;24.42;14.73;;;22.30;51.00;;;;;;4861648;29;45293;-79
2023/10/03 08:24:14;;;;;;;23.38;14.23;;;22.30;51.00;;;;;;4822930;29;44963;-79
2023/10/03 08:26:46;;;;;;;22.85;14.32;;;22.30;51.00;;;;;;4864540;29;45238;-84
2023/10/03 08:29:21;;;;;;;22.80;13.77;;;22.30;51.00;;;;;;4840226;29;45283;-82
2023/10/03 08:31:56;;;;;;;24.65;14.77;;;22.30;51.00;;;;;;4852894;29;48247;-80
2023/10/03 08:34:25;;;;;;;22.60;14.35;;;22.30;51.00;;;;;;4878896;29;45461;-83
2023/10/03 08:36:54;;;;;;;22.38;14.45;;;22.30;51.00;;;;;;4861548;29;45326;-84
2023/10/03 08:39:23;;;;;;;22.15;13.75;;;22.30;51.00;;;;;;4869159;29;45203;-82
2023/10/03 08:42:00;;;;;;;24.17;14.38;;;22.30;51.00;;;;;;4852169;29;45444;-83
2023/10/03 08:44:25;;;;;;;23.27;14.90;;;22.30;51.00;;;;;;4878314;29;45429;-81
2023/10/03 08:46:55;;;;;;;22.60;14.17;;;22.30;51.00;;;;;;4860249;29;45206;-80
2023/10/03 08:49:26;;;;;;;24.55;14.38;;;22.30;51.10;;;;;;4866663;29;45342;-82
2023/10/03 08:51:52;;;;;;;23.83;14.40;;;22.30;51.00;;;;;;4827793;29;45598;-82
2023/10/03 08:54:18;;;;;;;24.05;14.20;;;22.30;51.00;;;;;;4869350;29;45769;-85
2023/10/03 08:56:44;;;;;;;24.48;14.63;;;22.30;51.00;;;;;;4855659;29;45962;-79
2023/10/03 08:59:09;;;;;;;22.80;13.90;;;22.30;51.10;;;;;;4847115;29;46369;-79
2023/10/03 09:01:46;;;;;;;21.53;13.83;;;22.30;51.00;;;;;;4851857;29;46120;-82
2023/10/03 09:04:18;;;;;;;23.48;14.40;;;22.30;51.10;;;;;;4875071;29;45309;-79
2023/10/03 09:06:44;;;;;;;22.83;14.20;;;22.30;51.10;;;;;;4870975;29;45295;-80
2023/10/03 09:09:16;;;;;;;22.17;14.15;;;22.30;51.10;;;;;;4861076;29;44844;-80
2023/10/03 09:11:45;;;;;;;22.58;13.75;;;22.30;51.10;;;;;;4846417;29;46915;-81
2023/10/03 09:14:20;;;;;;;23.50;14.40;;;22.30;51.10;;;;;;4847008;29;45429;-79
2023/10/03 09:16:50;;;;;;;22.40;14.10;;;22.30;51.10;;;;;;4855601;29;45312;-83
2023/10/03 09:19:23;;;;;;;23.00;14.37;;;22.30;51.10;;;;;;4838010;29;45863;-83
2023/10/03 09:21:52;;;;;;;22.63;14.03;;;22.30;51.10;;;;;;4872825;29;46107;-80
2023/10/03 09:24:24;;;;;;;23.90;14.50;;;22.30;51.10;;;;;;4860236;29;45346;-81
2023/10/03 09:26:57;;;;;;;21.08;13.40;;;22.30;51.10;;;;;;4848223;29;45411;-81
2023/10/03 09:29:32;;;;;;;21.53;13.47;;;22.30;51.10;;;;;;4869235;29;44830;-80
2023/10/03 09:32:17;;;;;;;21.17;13.27;;;22.30;51.10;;;;;;4865034;29;46983;-80
2023/10/03 09:34:43;;;;;;;21.88;13.80;;;22.30;51.10;;;;;;4856325;29;45726;-80
2023/10/03 09:37:09;;;;;;;21.38;13.48;;;22.30;51.10;;;;;;4859733;29;45302;-81
2023/10/03 09:39:51;;;;;;;21.48;13.35;;;22.30;51.10;;;;;;4856407;29;45582;-82
2023/10/03 09:42:17;;;;;;;21.58;13.35;;;22.30;51.20;;;;;;4866722;29;45478;-82
2023/10/03 09:44:57;;;;;;;21.73;13.50;;;22.30;51.10;;;;;;4864717;29;45411;-83
2023/10/03 09:47:30;;;;;;;20.50;13.20;;;22.30;51.20;;;;;;4850497;29;46418;-80
2023/10/03 09:50:03;;;;;;;20.45;12.95;;;22.30;51.20;;;;;;4850041;29;45625;-79
2023/10/03 09:52:32;;;;;;;21.58;13.35;;;22.30;51.20;;;;;;4846038;29;45184;-81
2023/10/03 09:55:17;;;;;;;20.55;13.02;;;22.30;51.20;;;;;;4861535;29;45613;-82
2023/10/03 09:57:46;;;;;;;20.35;12.77;;;22.30;51.20;;;;;;4879403;29;45215;-80
2023/10/03 10:03:19;;;;;;;19.85;12.15;;;22.30;51.20;;;;;;4819719;29;44968;-84
2023/10/03 10:05:50;;;;;;;18.80;11.30;;;22.30;51.20;;;;;;4844666;29;44690;-81
2023/10/03 10:08:27;;;;;;;19.83;11.60;;;22.30;51.20;;;;;;4848620;29;45460;-83
2023/10/03 10:11:09;;;;;;;19.40;11.70;;;22.30;51.20;;;;;;4852504;29;45526;-80
2023/10/03 10:13:37;;;;;;;18.42;11.88;;;22.40;51.30;;;;;;4849550;29;46783;-80
2023/10/03 10:16:11;;;;;;;19.02;11.55;;;22.30;51.20;;;;;;4855752;29;45991;-79
2023/10/03 10:18:46;;;;;;;19.10;11.70;;;22.40;51.30;;;;;;4877080;29;45176;-79
2023/10/03 10:21:24;;;;;;;17.75;11.30;;;22.30;51.30;;;;;;4875474;29;45350;-80
2023/10/03 10:24:08;;;;;;;18.77;11.77;;;22.40;51.40;;;;;;4875062;29;47216;-80
2023/10/03 10:26:34;;;;;;;16.63;10.90;;;22.40;51.30;;;;;;4878334;29;45818;-82
2023/10/03 10:29:09;;;;;;;17.33;10.80;;;22.40;51.40;;;;;;4864404;29;45526;-85
2023/10/03 10:31:42;;;;;;;17.23;10.87;;;22.40;51.30;;;;;;4841419;29;45240;-81
2023/10/03 10:34:18;;;;;;;17.27;10.93;;;22.40;51.30;;;;;;4852324;29;46421;-80
2023/10/03 10:37:04;;;;;;;17.63;10.70;;;22.40;51.40;;;;;;4858667;29;45720;-80
2023/10/03 10:39:52;;;;;;;18.02;10.73;;;22.40;51.40;;;;;;4862410;29;44663;-86
2023/10/03 10:42:20;;;;;;;16.67;10.55;;;22.40;51.40;;;;;;4861531;29;45138;-79
2023/10/03 10:45:13;;;;;;;16.15;10.07;;;22.40;51.40;;;;;;4849269;29;46443;-82
2023/10/03 10:47:46;;;;;;;16.55;10.15;;;22.40;51.40;;;;;;4884699;29;45087;-80
2023/10/03 10:50:17;;;;;;;16.03;9.87;;;22.40;51.40;;;;;;4847890;29;45365;-81
2023/10/03 10:52:53;;;;;;;15.93;9.43;;;22.40;51.50;;;;;;4848755;29;45406;-84
2023/10/03 10:55:22;;;;;;;14.10;9.38;;;22.40;51.40;;;;;;4861245;29;45499;-86
2023/10/03 10:58:21;;;;;;;13.35;8.93;;;22.40;51.40;;;;;;4867338;29;45243;-84
2023/10/03 11:00:46;;;;;;;12.87;8.77;;;22.40;51.40;;;;;;4821685;29;45000;-82
2023/10/03 11:03:12;;;;;;;13.93;8.93;;;22.40;51.50;;;;;;4835469;29;46485;-79
2023/10/03 11:05:49;;;;;;;14.25;8.98;;;22.40;51.50;;;;;;4832180;29;46258;-79
2023/10/03 11:08:19;;;;;;;12.10;8.45;;;22.40;51.50;;;;;;4862265;29;45353;-81
2023/10/03 11:10:52;;;;;;;14.73;8.93;;;22.40;51.50;;;;;;4846112;29;44916;-87
2023/10/03 11:13:19;;;;;;;13.38;8.50;;;22.40;51.50;;;;;;4866039;29;45163;-80
2023/10/03 11:15:54;;;;;;;13.52;8.90;;;22.40;51.50;;;;;;4847964;29;46470;-85
2023/10/03 11:18:30;;;;;;;14.00;8.82;;;22.40;51.50;;;;;;4839412;29;45140;-79
2023/10/03 11:20:59;;;;;;;16.05;8.63;;;22.40;51.50;;;;;;4831641;29;45728;-81
2023/10/03 11:23:25;;;;;;;12.93;8.25;;;22.40;51.50;;;;;;4877195;29;46624;-81
2023/10/03 11:25:58;;;;;;;12.60;8.18;;;22.50;51.60;;;;;;4843600;29;46153;-81
2023/10/03 11:28:24;;;;;;;13.50;8.45;;;22.50;51.50;;;;;;4844059;29;45272;-80
2023/10/03 11:31:03;;;;;;;13.27;8.10;;;22.50;51.60;;;;;;4857004;29;45381;-79
2023/10/03 11:33:40;;;;;;;12.75;8.18;;;22.40;51.50;;;;;;4829349;29;45427;-79
2023/10/03 11:36:07;;;;;;;13.18;8.57;;;22.50;51.60;;;;;;4834268;29;45579;-79
2023/10/03 11:38:44;;;;;;;12.68;7.88;;;22.50;51.70;;;;;;4850210;29;45488;-81
2023/10/03 11:41:10;;;;;;;12.27;7.90;;;22.50;51.70;;;;;;4857677;29;46454;-79
2023/10/03 11:43:45;;;;;;;11.03;7.33;;;22.50;51.70;;;;;;4846294;29;45232;-83
2023/10/03 11:46:11;;;;;;;11.18;7.50;;;22.50;51.70;;;;;;4861699;29;45418;-80
2023/10/03 11:48:37;;;;;;;10.87;7.23;;;22.50;51.70;;;;;;4832295;29;45951;-79
2023/10/03 11:51:04;;;;;;;11.13;7.20;;;22.50;51.70;;;;;;4863180;29;46034;-80
2023/10/03 11:53:31;;;;;;;11.55;7.70;;;22.50;51.70;;;;;;4849450;29;45871;-80
2023/10/03 11:55:57;;;;;;;10.40;7.23;;;22.50;51.80;;;;;;4831351;29;45500;-80
2023/10/03 11:58:24;;;;;;;10.80;6.90;;;22.50;51.70;;;;;;4834420;29;45219;-80
2023/10/03 12:00:51;;;;;;;10.50;7.05;;;22.50;51.70;;;;;;4851188;29;45164;-87
2023/10/03 12:03:19;;;;;;;10.77;7.33;;;22.50;51.70;;;;;;4826772;29;45716;-88
2023/10/03 12:05:46;;;;;;;10.75;6.53;;;22.50;51.70;;;;;;4806972;29;45271;-83
2023/10/03 12:08:13;;;;;;;10.95;7.28;;;22.50;51.70;;;;;;4841446;29;45440;-81
2023/10/03 12:10:40;;;;;;;10.73;6.95;;;22.50;51.70;;;;;;4813257;29;45373;-79
2023/10/03 12:13:07;;;;;;;9.57;6.55;;;22.50;51.80;;;;;;4811245;29;44920;-81
2023/10/03 12:15:34;;;;;;;10.83;6.77;;;22.50;51.80;;;;;;4827834;29;46464;-80
2023/10/03 12:17:59;;;;;;;10.13;6.60;;;22.50;51.80;;;;;;4837257;29;45255;-82
2023/10/03 12:20:25;;;;;;;10.50;6.60;;;22.50;51.70;;;;;;4849960;29;45266;-82
2023/10/03 12:22:52;;;;;;;10.13;6.57;;;22.50;51.70;;;;;;4820530;29;45065;-88
2023/10/03 12:25:20;;;;;;;9.70;6.53;;;22.50;51.70;;;;;;4855436;29;45260;-83
2023/10/03 12:27:46;;;;;;;9.52;6.60;;;22.50;51.70;;;;;;4829981;29;45474;-81
2023/10/03 12:30:15;;;;;;;9.02;6.18;;;22.50;51.70;;;;;;4829581;29;45639;-81
2023/10/03 12:32:46;;;;;;;9.70;6.70;;;22.50;51.70;;;;;;4837939;29;45591;-81
2023/10/03 12:35:13;;;;;;;10.57;6.53;;;22.50;51.70;;;;;;4809509;29;45444;-80
2023/10/03 12:37:39;;;;;;;9.32;6.45;;;22.50;51.80;;;;;;4814191;29;45077;-80
2023/10/03 12:40:13;;;;;;;9.05;6.47;;;22.60;51.80;;;;;;4826521;29;45499;-80
2023/10/03 12:43:00;;;;;;;9.43;6.30;;;22.60;51.70;;;;;;4813909;29;45492;-85
2023/10/03 12:45:26;;;;;;;9.85;6.57;;;22.50;51.70;;;;;;4827200;29;47205;-80
2023/10/03 12:47:54;;;;;;;9.85;6.60;;;22.60;51.80;;;;;;4843254;29;44757;-80
2023/10/03 12:50:23;;;;;;;9.52;6.47;;;22.60;51.80;;;;;;4795116;29;44887;-85
2023/10/03 12:52:52;;;;;;;8.27;6.00;;;22.50;51.70;;;;;;4814110;29;45475;-80
2023/10/03 12:55:20;;;;;;;8.15;5.95;;;22.50;51.80;;;;;;4841560;29;45928;-83
2023/10/03 12:57:48;;;;;;;8.95;6.05;;;22.60;51.70;;;;;;4827353;29;44645;-83
2023/10/03 13:00:24;;;;;;;8.75;6.30;;;22.50;51.70;;;;;;4825367;29;45359;-87
2023/10/03 13:03:00;;;;;;;7.70;5.78;;;22.60;51.80;;;;;;4862842;29;45254;-80
2023/10/03 13:05:27;;;;;;;8.30;5.50;;;22.60;51.80;;;;;;4848017;29;47947;-81
2023/10/03 13:07:53;;;;;;;9.52;6.07;;;22.60;52.40;;;;;;4822257;29;45339;-80
2023/10/03 13:10:20;;;;;;;9.10;5.95;;;22.60;51.80;;;;;;4850449;29;45635;-85
2023/10/03 13:12:46;;;;;;;9.57;5.73;;;22.60;51.80;;;;;;4864792;29;46194;-81
2023/10/03 13:15:15;;;;;;;8.65;5.47;;;22.60;51.80;;;;;;4848785;29;45238;-80
2023/10/03 13:17:41;;;;;;;9.23;5.53;;;22.60;51.80;;;;;;4862760;29;46586;-81
2023/10/03 13:20:14;;;;;;;8.03;5.40;;;22.60;51.80;;;;;;4834199;29;45435;-85
2023/10/03 13:22:43;;;;;;;9.15;5.38;;;22.60;51.80;;;;;;4835892;29;45241;-81
2023/10/03 13:25:18;;;;;;;9.00;5.90;;;22.60;51.90;;;;;;4834472;29;46046;-81
2023/10/03 13:27:48;;;;;;;8.15;5.60;;;22.50;51.90;;;;;;4860042;29;46310;-83
2023/10/03 13:30:24;;;;;;;8.25;5.50;;;22.60;52.00;;;;;;4842766;29;46208;-87
2023/10/03 13:32:51;;;;;;;8.30;5.63;;;22.60;52.00;;;;;;4836466;29;47065;-81
2023/10/03 13:35:17;;;;;;;7.45;5.50;;;22.60;52.10;;;;;;4831037;29;46013;-80
2023/10/03 13:37:46;;;;;;;8.05;5.75;;;22.60;52.00;;;;;;4847830;29;45082;-83
2023/10/03 13:40:12;;;;;;;8.05;5.60;;;22.60;52.30;;;;;;4864810;29;44861;-80
2023/10/03 13:42:38;;;;;;;7.97;5.25;;;22.60;52.20;;;;;;4834542;29;45614;-84
2023/10/03 13:45:07;;;;;;;9.40;5.43;;;22.60;52.30;;;;;;4847044;29;46767;-84
2023/10/03 13:47:35;;;;;;;7.90;5.43;;;22.60;52.30;;;;;;4846533;29;45414;-82
2023/10/03 13:50:03;;;;;;;9.93;5.32;;;22.60;52.20;;;;;;4850320;29;44798;-83
2023/10/03 13:52:29;;;;;;;7.13;5.30;;;22.60;52.40;;;;;;4847947;29;45677;-81
2023/10/03 13:54:59;;;;;;;8.10;5.20;;;22.60;52.40;;;;;;4866534;29;45639;-82
2023/10/03 13:57:26;;;;;;;8.95;5.30;;;22.60;52.50;;;;;;4863517;29;45520;-82
2023/10/03 13:59:53;;;;;;;7.97;5.57;;;22.60;52.50;;;;;;4866037;29;45328;-85
2023/10/03 14:02:22;;;;;;;8.07;5.43;;;22.60;52.60;;;;;;4870327;29;45351;-84
2023/10/03 14:04:48;;;;;;;8.30;5.38;;;22.60;52.60;;;;;;4860819;29;45409;-83
2023/10/03 14:07:15;;;;;;;7.18;5.20;;;22.60;52.50;;;;;;4862338;29;45268;-81
2023/10/03 14:09:41;;;;;;;7.30;4.93;;;22.60;52.30;;;;;;4863984;29;45529;-80
2023/10/03 14:12:08;;;;;;;7.35;5.20;;;22.60;52.20;;;;;;4863235;29;45191;-83
2023/10/03 14:14:33;;;;;;;6.80;5.10;;;22.70;52.30;;;;;;4854018;29;47505;-82
2023/10/03 14:17:02;;;;;;;8.18;5.25;;;22.60;52.20;;;;;;4863021;29;45484;-81
2023/10/03 14:19:29;;;;;;;7.22;5.10;;;22.60;52.30;;;;;;4864359;29;45240;-80
2023/10/03 14:21:55;;;;;;;6.63;4.88;;;22.60;52.30;;;;;;4860377;29;46831;-81
2023/10/03 14:24:21;;;;;;;6.25;4.88;;;22.60;52.30;;;;;;4846659;29;45885;-82
2023/10/03 14:26:47;;;;;;;8.18;5.10;;;22.60;52.20;;;;;;4863874;29;45369;-81
2023/10/03 14:29:13;;;;;;;7.57;5.27;;;22.60;52.30;;;;;;4861783;29;45490;-80
2023/10/03 14:31:39;;;;;;;6.72;4.80;;;22.60;52.20;;;;;;4842608;29;44987;-81
2023/10/03 14:34:05;;;;;;;7.45;4.90;;;22.60;52.30;;;;;;4833515;29;46837;-81
2023/10/03 14:36:34;;;;;;;7.30;4.85;;;22.60;52.20;;;;;;4846647;29;45251;-82
2023/10/03 14:39:00;;;;;;;8.32;5.10;;;22.60;52.20;;;;;;4864997;29;45780;-83
2023/10/03 14:41:26;;;;;;;6.88;5.03;;;22.60;52.40;;;;;;4850336;29;46127;-81
2023/10/03 14:43:52;;;;;;;7.03;4.97;;;22.60;52.60;;;;;;4846352;29;45946;-82
2023/10/03 14:46:18;;;;;;;8.27;5.25;;;22.60;52.60;;;;;;4842301;29;45610;-82
2023/10/03 14:48:44;;;;;;;7.40;4.97;;;22.60;52.50;;;;;;4848738;29;45377;-81
2023/10/03 14:51:11;;;;;;;7.53;4.72;;;22.60;52.30;;;;;;4863191;29;45267;-82
2023/10/03 14:53:38;;;;;;;7.72;5.03;;;22.60;52.40;;;;;;4821257;29;45447;-82
2023/10/03 14:56:04;;;;;;;7.30;4.70;;;22.60;52.40;;;;;;4864116;29;45407;-82
2023/10/03 14:58:37;;;;;;;7.03;4.47;;;22.60;52.40;;;;;;4848642;29;45508;-84
2023/10/03 15:01:06;;;;;;;6.93;4.63;;;22.60;53.00;;;;;;4845841;29;45515;-82
2023/10/03 15:03:32;;;;;;;6.57;4.67;;;22.70;52.40;;;;;;4860154;29;46268;-81
2023/10/03 15:05:59;;;;;;;6.72;4.72;;;22.60;52.30;;;;;;4830449;29;45121;-83
2023/10/03 15:08:26;;;;;;;6.53;4.63;;;22.60;52.30;;;;;;4879381;29;45505;-90
2023/10/03 15:11:00;;;;;;;5.95;4.47;;;22.60;52.40;;;;;;4845248;29;45685;-81
2023/10/03 15:13:25;;;;;;;5.72;4.40;;;22.60;52.50;;;;;;4845911;29;46391;-81
2023/10/03 15:15:53;;;;;;;5.65;4.30;;;22.60;52.60;;;;;;4856343;29;45762;-81
2023/10/03 15:18:19;;;;;;;6.57;4.72;;;22.70;52.60;;;;;;4830564;29;46320;-85
2023/10/03 15:20:44;;;;;;;5.88;4.38;;;22.60;52.50;;;;;;4837438;29;45515;-81
2023/10/03 15:23:10;;;;;;;6.50;4.70;;;22.60;52.50;;;;;;4859225;29;47131;-81
2023/10/03 15:25:38;;;;;;;6.50;4.70;;;22.60;52.60;;;;;;4861819;29;45424;-84
2023/10/03 15:28:05;;;;;;;6.40;4.55;;;22.60;52.70;;;;;;4884058;29;45514;-83
2023/10/03 15:30:30;;;;;;;6.83;4.40;;;22.60;52.70;;;;;;4870365;29;45463;-82
2023/10/03 15:32:59;;;;;;;5.47;4.40;;;22.60;52.70;;;;;;4860463;29;45735;-81
2023/10/03 15:35:25;;;;;;;6.55;4.40;;;22.60;52.70;;;;;;4872151;29;45513;-83
2023/10/03 15:37:51;;;;;;;6.72;4.70;;;22.70;52.90;;;;;;4860307;29;45266;-83
2023/10/03 15:40:20;;;;;;;6.80;4.90;;;22.60;52.80;;;;;;4855303;29;45147;-85
2023/10/03 15:42:46;;;;;;;5.30;4.03;;;22.60;52.70;;;;;;4857920;29;45834;-82
2023/10/03 15:45:16;;;;;;;6.43;4.70;;;22.70;52.70;;;;;;4843796;29;45586;-81